createdAt,value
2022-10-09T00:00:01.083Z,0.33
2022-10-09T00:02:28.552Z,0.43
2022-10-09T00:04:56.098Z,0.35
2022-10-09T00:07:25.100Z,0.40
2022-10-09T00:09:52.509Z,0.41
2022-10-09T00:12:19.924Z,0.42
2022-10-09T00:14:47.551Z,0.36
2022-10-09T00:17:14.978Z,0.26
2022-10-09T00:19:42.436Z,0.09
2022-10-09T00:22:09.849Z,0.13
2022-10-09T00:24:38.689Z,0.24
2022-10-09T00:27:06.130Z,0.34
2022-10-09T00:29:33.554Z,0.31
2022-10-09T00:32:00.992Z,0.33
2022-10-09T00:34:28.421Z,0.10
2022-10-09T00:36:55.876Z,0.21
2022-10-09T00:39:23.328Z,0.16
2022-10-09T00:41:52.068Z,0.12
2022-10-09T00:44:49.209Z,0.27
2022-10-09T00:47:21.067Z,0.26
2022-10-09T00:49:50.599Z,0.21
2022-10-09T00:52:18.420Z,0.27
2022-10-09T00:54:45.991Z,0.34
2022-10-09T00:57:15.053Z,0.42
2022-10-09T00:59:42.508Z,0.39
2022-10-09T01:02:09.988Z,0.35
2022-10-09T01:04:37.435Z,0.28
2022-10-09T01:07:19.229Z,0.32
2022-10-09T01:09:56.500Z,0.13
2022-10-09T01:12:34.768Z,0.17
2022-10-09T01:15:10.328Z,0.10
2022-10-09T01:17:44.863Z,-0.04
2022-10-09T01:20:27.017Z,-0.29
2022-10-09T01:23:12.039Z,-0.22
2022-10-09T01:25:51.524Z,-0.18
2022-10-09T01:28:23.930Z,-0.20
2022-10-09T01:30:51.767Z,-0.28
2022-10-09T01:33:19.440Z,-0.23
2022-10-09T01:35:48.058Z,-0.24
2022-10-09T01:38:17.568Z,-0.25
2022-10-09T01:40:45.054Z,-0.19
2022-10-09T01:43:12.736Z,-0.23
2022-10-09T01:45:44.550Z,-0.19
2022-10-09T01:48:17.451Z,-0.28
2022-10-09T01:50:47.252Z,-0.38
2022-10-09T01:53:19.408Z,-0.29
2022-10-09T01:55:51.829Z,-0.24
2022-10-09T01:58:22.877Z,-0.29
2022-10-09T02:00:57.815Z,-0.32
2022-10-09T02:06:15.746Z,-0.35
2022-10-09T02:08:47.241Z,-0.60
2022-10-09T02:11:15.663Z,-0.46
2022-10-09T02:13:44.422Z,-0.52
2022-10-09T02:16:18.805Z,-0.64
2022-10-09T02:18:49.343Z,-0.63
2022-10-09T02:21:23.165Z,-0.85
2022-10-09T02:23:51.934Z,-0.77
2022-10-09T02:26:20.205Z,-0.74
2022-10-09T02:28:47.841Z,-0.80
2022-10-09T02:31:23.862Z,-0.70
2022-10-09T02:33:56.214Z,-0.76
2022-10-09T02:36:23.645Z,-0.79
2022-10-09T02:38:51.091Z,-0.75
2022-10-09T02:41:18.549Z,-0.77
2022-10-09T02:43:46.046Z,-0.80
2022-10-09T02:46:13.618Z,-0.75
2022-10-09T02:48:42.465Z,-0.68
2022-10-09T02:51:10.027Z,-0.70
2022-10-09T02:53:37.522Z,-0.72
2022-10-09T02:56:05.161Z,-0.81
2022-10-09T02:58:33.289Z,-0.76
2022-10-09T03:01:00.983Z,-0.68
2022-10-09T03:03:28.478Z,-0.78
2022-10-09T03:06:02.442Z,-0.64
2022-10-09T03:08:29.973Z,-0.63
2022-10-09T03:10:57.445Z,-0.54
2022-10-09T03:13:25.085Z,-0.48
2022-10-09T03:15:52.553Z,-0.54
2022-10-09T03:18:20.518Z,-0.56
2022-10-09T03:20:48.288Z,-0.79
2022-10-09T03:23:17.094Z,-0.97
2022-10-09T03:25:44.528Z,-0.88
2022-10-09T03:28:11.979Z,-0.76
2022-10-09T03:30:41.640Z,-0.82
2022-10-09T03:33:09.065Z,-0.94
2022-10-09T03:35:36.496Z,-0.89
2022-10-09T03:38:03.946Z,-0.98
2022-10-09T03:40:32.755Z,-1.04
2022-10-09T03:43:00.203Z,-1.13
2022-10-09T03:45:27.635Z,-1.07
2022-10-09T03:47:55.042Z,-0.95
2022-10-09T03:50:22.539Z,-0.96
2022-10-09T03:52:50.309Z,-1.04
2022-10-09T03:55:18.309Z,-0.99
2022-10-09T03:57:47.092Z,-1.04
2022-10-09T04:00:15.554Z,-1.14
2022-10-09T04:02:43.033Z,-1.03
2022-10-09T04:05:10.502Z,-1.04
2022-10-09T04:07:37.922Z,-0.99
2022-10-09T04:10:06.321Z,-0.96
2022-10-09T04:12:34.130Z,-1.09
2022-10-09T04:15:03.238Z,-1.14
2022-10-09T04:17:30.835Z,-1.15
2022-10-09T04:19:58.240Z,-1.17
2022-10-09T04:22:25.702Z,-1.10
2022-10-09T04:24:53.136Z,-1.04
2022-10-09T04:27:20.802Z,-1.09
2022-10-09T04:29:48.196Z,-1.06
2022-10-09T04:32:16.924Z,-1.06
2022-10-09T04:34:44.366Z,-1.00
2022-10-09T04:37:11.773Z,-1.02
2022-10-09T04:39:39.190Z,-0.97
2022-10-09T04:42:07.095Z,-0.94
2022-10-09T04:44:34.525Z,-0.78
2022-10-09T04:47:01.921Z,-0.77
2022-10-09T04:49:30.690Z,-0.92
2022-10-09T04:51:58.111Z,-0.80
2022-10-09T04:54:25.733Z,-0.84
2022-10-09T04:56:53.159Z,-0.81
2022-10-09T04:59:20.608Z,-1.01
2022-10-09T05:01:48.138Z,-0.88
2022-10-09T05:04:15.624Z,-0.86
2022-10-09T05:06:44.429Z,-0.81
2022-10-09T05:09:11.879Z,-0.85
2022-10-09T05:11:42.492Z,-0.85
2022-10-09T05:14:10.513Z,-0.81
2022-10-09T05:16:55.266Z,-0.81
2022-10-09T05:19:25.708Z,-0.84
2022-10-09T05:21:54.449Z,-0.84
2022-10-09T05:24:22.029Z,-0.86
2022-10-09T05:26:49.453Z,-0.80
2022-10-09T05:29:16.872Z,-0.83
2022-10-09T05:31:49.092Z,-0.84
2022-10-09T05:34:16.942Z,-0.83
2022-10-09T05:36:44.372Z,-1.02
2022-10-09T05:39:13.211Z,-0.82
2022-10-09T05:41:40.681Z,-0.84
2022-10-09T05:44:08.805Z,-0.90
2022-10-09T05:46:36.247Z,-0.78
2022-10-09T05:49:08.372Z,-0.79
2022-10-09T05:51:38.027Z,-0.95
2022-10-09T05:54:07.087Z,-0.85
2022-10-09T05:56:37.498Z,-0.77
2022-10-09T05:59:07.007Z,-0.69
2022-10-09T06:01:36.794Z,-0.62
2022-10-09T06:04:09.750Z,-0.49
2022-10-09T06:06:38.835Z,-0.52
2022-10-09T06:09:07.650Z,-0.31
2022-10-09T06:11:38.175Z,-0.20
2022-10-09T06:14:07.546Z,-0.04
2022-10-09T06:16:37.287Z,0.14
2022-10-09T06:19:06.338Z,0.22
2022-10-09T06:21:34.787Z,0.21
2022-10-09T06:24:03.791Z,0.49
2022-10-09T06:26:31.734Z,0.28
2022-10-09T06:29:02.795Z,0.52
2022-10-09T06:31:32.271Z,0.80
2022-10-09T06:34:00.705Z,1.16
2022-10-09T06:36:30.327Z,1.26
2022-10-09T06:39:00.103Z,1.45
2022-10-09T06:41:29.287Z,1.61
2022-10-09T06:43:58.723Z,1.62
2022-10-09T06:46:29.611Z,1.78
2022-10-09T06:48:57.224Z,2.08
2022-10-09T06:51:25.218Z,2.34
2022-10-09T06:53:54.175Z,2.49
2022-10-09T06:56:23.516Z,2.51
2022-10-09T06:58:51.152Z,2.79
2022-10-09T07:01:20.531Z,2.97
2022-10-09T07:03:54.272Z,3.19
2022-10-09T07:06:23.167Z,3.43
2022-10-09T07:08:52.527Z,3.48
2022-10-09T07:11:21.463Z,3.66
2022-10-09T07:13:50.781Z,3.82
2022-10-09T07:16:21.663Z,3.92
2022-10-09T07:18:50.851Z,4.16
2022-10-09T07:21:18.701Z,4.45
2022-10-09T07:23:46.496Z,4.68
2022-10-09T07:26:17.663Z,4.88
2022-10-09T07:28:46.499Z,5.08
2022-10-09T07:31:14.632Z,5.33
2022-10-09T07:33:42.593Z,5.58
2022-10-09T07:36:11.907Z,5.75
2022-10-09T07:38:39.292Z,5.84
2022-10-09T07:41:09.035Z,6.02
2022-10-09T07:43:37.499Z,6.22
2022-10-09T07:46:06.502Z,6.33
2022-10-09T07:48:35.074Z,6.47
2022-10-09T07:51:09.243Z,6.74
2022-10-09T07:53:39.067Z,6.88
2022-10-09T07:56:07.532Z,6.98
2022-10-09T07:58:35.093Z,7.16
2022-10-09T08:01:06.892Z,7.29
2022-10-09T08:03:34.723Z,7.33
2022-10-09T08:06:02.410Z,7.47
2022-10-09T08:08:29.884Z,7.57
2022-10-09T08:10:58.730Z,7.69
2022-10-09T08:13:26.244Z,7.79
2022-10-09T08:15:53.724Z,7.94
2022-10-09T08:18:21.207Z,8.21
2022-10-09T08:20:57.575Z,8.26
2022-10-09T08:23:25.044Z,8.44
2022-10-09T08:25:52.496Z,8.45
2022-10-09T08:28:21.757Z,8.57
2022-10-09T08:30:49.382Z,8.78
2022-10-09T08:33:20.164Z,8.75
2022-10-09T08:35:47.739Z,8.87
2022-10-09T08:38:37.498Z,9.01
2022-10-09T08:41:07.297Z,9.09
2022-10-09T08:43:41.311Z,9.27
2022-10-09T08:46:20.605Z,9.44
2022-10-09T08:48:51.441Z,9.49
2022-10-09T08:51:24.132Z,9.48
2022-10-09T08:53:57.174Z,9.51
2022-10-09T08:56:27.343Z,9.50
2022-10-09T08:58:56.663Z,9.56
2022-10-09T09:01:33.840Z,9.66
2022-10-09T09:04:25.856Z,9.76
2022-10-09T09:07:01.389Z,9.96
2022-10-09T09:09:41.197Z,10.10
2022-10-09T09:12:15.608Z,10.27
2022-10-09T09:14:58.700Z,10.32
2022-10-09T09:17:35.725Z,10.20
2022-10-09T09:20:16.129Z,10.28
2022-10-09T09:22:48.223Z,10.31
2022-10-09T09:25:21.009Z,10.37
2022-10-09T09:27:48.640Z,10.62
2022-10-09T09:30:22.448Z,10.68
2022-10-09T09:32:56.575Z,10.66
2022-10-09T09:35:33.247Z,10.80
2022-10-09T09:38:00.891Z,10.86
2022-10-09T09:40:38.152Z,10.94
2022-10-09T09:43:15.674Z,10.99
2022-10-09T09:45:45.512Z,10.97
2022-10-09T09:48:16.884Z,10.93
2022-10-09T09:50:53.040Z,11.08
2022-10-09T09:53:29.907Z,11.14
2022-10-09T09:55:58.044Z,11.30
2022-10-09T09:58:33.847Z,11.46
2022-10-09T10:01:06.231Z,11.37
2022-10-09T10:03:34.696Z,11.34
2022-10-09T10:06:02.255Z,11.23
2022-10-09T10:08:31.039Z,11.28
2022-10-09T10:11:00.796Z,11.46
2022-10-09T10:13:34.896Z,11.67
2022-10-09T10:16:04.352Z,11.74
2022-10-09T10:18:39.117Z,11.75
2022-10-09T10:21:11.215Z,11.71
2022-10-09T10:23:41.653Z,11.63
2022-10-09T10:26:18.415Z,11.56
2022-10-09T10:28:50.419Z,11.44
2022-10-09T10:31:36.419Z,11.57
2022-10-09T10:34:05.978Z,11.77
2022-10-09T10:36:34.821Z,11.92
2022-10-09T10:39:09.307Z,12.01
2022-10-09T10:41:45.355Z,11.97
2022-10-09T10:44:22.788Z,11.98
2022-10-09T10:46:55.821Z,11.93
2022-10-09T10:49:24.098Z,11.98
2022-10-09T10:52:06.668Z,12.16
2022-10-09T10:54:39.822Z,12.32
2022-10-09T10:57:16.204Z,12.32
2022-10-09T10:59:57.799Z,12.38
2022-10-09T11:02:53.714Z,12.40
2022-10-09T11:05:28.607Z,12.35
2022-10-09T11:08:11.876Z,12.41
2022-10-09T11:10:49.438Z,12.46
2022-10-09T11:13:23.842Z,12.53
2022-10-09T11:16:00.752Z,12.49
2022-10-09T11:18:45.737Z,12.54
2022-10-09T11:21:26.888Z,12.33
2022-10-09T11:24:13.793Z,12.38
2022-10-09T11:26:48.490Z,12.55
2022-10-09T11:29:20.862Z,12.55
2022-10-09T11:31:53.622Z,12.58
2022-10-09T11:34:27.573Z,12.67
2022-10-09T11:36:56.597Z,12.66
2022-10-09T11:39:28.575Z,12.52
2022-10-09T11:41:56.697Z,12.53
2022-10-09T11:44:36.865Z,12.68
2022-10-09T11:47:13.070Z,12.58
2022-10-09T11:49:57.535Z,12.67
2022-10-09T11:52:36.334Z,12.83
2022-10-09T11:55:18.541Z,12.85
2022-10-09T11:57:46.079Z,12.95
2022-10-09T12:00:14.187Z,12.93
2022-10-09T12:02:43.818Z,13.01
2022-10-09T12:05:35.762Z,13.21
2022-10-09T12:08:15.365Z,13.23
2022-10-09T12:10:52.152Z,13.22
2022-10-09T12:13:41.947Z,13.10
2022-10-09T12:16:12.020Z,12.78
2022-10-09T12:18:44.439Z,12.90
2022-10-09T12:21:25.552Z,12.80
2022-10-09T12:23:54.032Z,12.86
2022-10-09T12:26:24.625Z,12.86
2022-10-09T12:28:54.640Z,13.02
2022-10-09T12:31:25.583Z,12.93
2022-10-09T12:33:57.637Z,12.91
2022-10-09T12:36:28.414Z,12.84
2022-10-09T12:38:56.336Z,12.80
2022-10-09T12:41:28.003Z,12.70
2022-10-09T12:43:57.233Z,12.69
2022-10-09T12:46:31.323Z,12.81
2022-10-09T12:49:00.848Z,12.99
2022-10-09T12:51:31.878Z,13.18
2022-10-09T12:53:59.470Z,13.30
2022-10-09T12:56:33.682Z,13.20
2022-10-09T12:59:02.680Z,13.35
2022-10-09T13:01:30.995Z,13.25
2022-10-09T13:04:00.415Z,13.32
2022-10-09T13:06:34.216Z,13.33
2022-10-09T13:09:05.158Z,13.36
2022-10-09T13:11:35.347Z,13.50
2022-10-09T13:14:03.131Z,13.43
2022-10-09T13:16:41.385Z,13.45
2022-10-09T13:19:22.511Z,13.59
2022-10-09T13:22:18.914Z,13.53
2022-10-09T13:24:46.734Z,13.43
2022-10-09T13:27:15.433Z,13.54
2022-10-09T13:29:43.497Z,13.62
2022-10-09T13:32:13.411Z,13.56
2022-10-09T13:34:41.251Z,13.50
2022-10-09T13:37:11.501Z,13.62
2022-10-09T13:39:38.959Z,13.86
2022-10-09T13:42:07.082Z,13.95
2022-10-09T13:44:34.501Z,13.99
2022-10-09T13:47:02.440Z,13.74
2022-10-09T13:49:29.897Z,13.69
2022-10-09T13:51:57.303Z,13.62
2022-10-09T13:54:26.625Z,13.73
2022-10-09T13:56:54.465Z,13.80
2022-10-09T13:59:21.955Z,14.00
2022-10-09T14:01:49.441Z,14.27
2022-10-09T14:04:17.105Z,14.61
2022-10-09T14:06:44.527Z,14.49
2022-10-09T14:09:11.924Z,15.20
2022-10-09T14:11:40.723Z,16.02
2022-10-09T14:14:08.184Z,16.12
2022-10-09T14:16:36.640Z,16.42
2022-10-09T14:19:05.383Z,16.31
2022-10-09T14:21:33.897Z,16.96
2022-10-09T14:24:03.264Z,16.75
2022-10-09T14:26:31.000Z,17.07
2022-10-09T14:29:01.737Z,15.98
2022-10-09T14:31:29.917Z,16.49
2022-10-09T14:33:59.622Z,16.79
2022-10-09T14:36:27.873Z,16.87
2022-10-09T14:38:55.588Z,17.28
2022-10-09T14:41:23.412Z,17.21
2022-10-09T14:43:56.639Z,16.31
2022-10-09T14:46:27.000Z,16.08
2022-10-09T14:48:56.266Z,16.26
2022-10-09T14:51:25.770Z,17.14
2022-10-09T14:53:56.835Z,16.74
2022-10-09T14:56:24.465Z,17.20
2022-10-09T14:58:51.898Z,16.71
2022-10-09T15:01:21.047Z,16.23
2022-10-09T15:03:49.988Z,16.99
2022-10-09T15:06:23.608Z,16.53
2022-10-09T15:08:52.350Z,15.89
2022-10-09T15:11:19.796Z,15.79
2022-10-09T15:13:47.232Z,15.83
2022-10-09T15:16:15.903Z,16.00
2022-10-09T15:18:44.231Z,16.04
2022-10-09T15:21:15.638Z,16.46
2022-10-09T15:23:43.709Z,16.78
2022-10-09T15:26:11.859Z,16.98
2022-10-09T15:28:40.679Z,16.47
2022-10-09T15:31:17.284Z,16.42
2022-10-09T15:33:44.685Z,16.18
2022-10-09T15:36:12.079Z,16.34
2022-10-09T15:38:41.089Z,16.18
2022-10-09T15:41:08.512Z,16.15
2022-10-09T15:43:38.972Z,16.22
2022-10-09T15:46:08.552Z,15.58
2022-10-09T15:48:36.019Z,15.62
2022-10-09T15:51:06.828Z,15.98
2022-10-09T15:53:34.278Z,16.23
2022-10-09T15:56:06.466Z,15.52
2022-10-09T15:58:34.006Z,15.78
2022-10-09T16:01:04.430Z,15.85
2022-10-09T16:03:36.441Z,15.98
2022-10-09T16:06:07.210Z,15.83
2022-10-09T16:08:34.901Z,15.22
2022-10-09T16:11:10.140Z,15.22
2022-10-09T16:13:39.728Z,15.03
2022-10-09T16:16:09.394Z,15.24
2022-10-09T16:18:37.388Z,15.13
2022-10-09T16:21:06.332Z,14.73
2022-10-09T16:23:33.943Z,15.01
2022-10-09T16:26:04.156Z,14.33
2022-10-09T16:28:33.560Z,13.72
2022-10-09T16:31:01.148Z,13.28
2022-10-09T16:33:28.959Z,12.90
2022-10-09T16:36:07.416Z,12.67
2022-10-09T16:38:34.865Z,12.49
2022-10-09T16:41:02.785Z,12.20
2022-10-09T16:43:34.857Z,11.95
2022-10-09T16:46:13.653Z,11.56
2022-10-09T16:48:41.064Z,11.58
2022-10-09T16:51:10.006Z,11.52
2022-10-09T16:53:37.491Z,11.38
2022-10-09T16:56:13.973Z,11.17
2022-10-09T16:58:43.574Z,10.99
2022-10-09T17:01:12.315Z,10.91
2022-10-09T17:03:41.166Z,10.84
2022-10-09T17:06:09.956Z,10.55
2022-10-09T17:08:37.396Z,10.71
2022-10-09T17:11:08.339Z,10.64
2022-10-09T17:13:36.141Z,10.58
2022-10-09T17:16:07.283Z,10.41
2022-10-09T17:18:35.839Z,10.34
2022-10-09T17:21:04.033Z,10.28
2022-10-09T17:23:31.482Z,10.24
2022-10-09T17:25:59.022Z,10.15
2022-10-09T17:28:26.547Z,10.06
2022-10-09T17:30:54.035Z,10.03
2022-10-09T17:33:22.807Z,9.99
2022-10-09T17:35:50.331Z,9.91
2022-10-09T17:38:17.784Z,9.84
2022-10-09T17:40:45.204Z,9.81
2022-10-09T17:43:12.652Z,9.75
2022-10-09T17:45:40.920Z,9.66
2022-10-09T17:48:09.771Z,9.52
2022-10-09T17:50:38.526Z,9.54
2022-10-09T17:53:06.221Z,9.41
2022-10-09T17:55:38.701Z,9.27
2022-10-09T17:58:06.160Z,9.25
2022-10-09T18:00:33.600Z,9.04
2022-10-09T18:03:01.008Z,8.96
2022-10-09T18:05:28.429Z,8.99
2022-10-09T18:07:57.200Z,8.96
2022-10-09T18:10:25.096Z,9.00
2022-10-09T18:12:52.526Z,8.94
2022-10-09T18:15:19.931Z,8.83
2022-10-09T18:17:47.625Z,8.89
2022-10-09T18:20:15.504Z,8.89
2022-10-09T18:22:42.969Z,8.87
2022-10-09T18:25:11.849Z,8.84
2022-10-09T18:27:39.313Z,8.87
2022-10-09T18:30:07.670Z,8.63
2022-10-09T18:32:35.112Z,8.47
2022-10-09T18:35:03.058Z,8.56
2022-10-09T18:37:30.526Z,8.57
2022-10-09T18:39:57.996Z,8.45
2022-10-09T18:42:26.899Z,8.26
2022-10-09T18:44:54.314Z,8.18
2022-10-09T18:47:28.197Z,8.11
2022-10-09T18:49:59.650Z,8.02
2022-10-09T18:52:27.242Z,8.04
2022-10-09T18:54:56.000Z,7.99
2022-10-09T18:57:25.796Z,8.04
2022-10-09T18:59:56.454Z,8.08
2022-10-09T19:02:26.438Z,8.00
2022-10-09T19:04:53.972Z,7.85
2022-10-09T19:07:21.477Z,7.82
2022-10-09T19:09:53.592Z,7.91
2022-10-09T19:12:23.885Z,7.71
2022-10-09T19:14:51.313Z,7.61
2022-10-09T19:17:20.532Z,7.56
2022-10-09T19:19:48.092Z,7.44
2022-10-09T19:22:19.028Z,7.48
2022-10-09T19:24:48.923Z,7.43
2022-10-09T19:27:16.328Z,7.34
2022-10-09T19:29:43.760Z,7.46
2022-10-09T19:32:11.467Z,7.39
2022-10-09T19:34:40.234Z,7.35
2022-10-09T19:37:07.648Z,7.33
2022-10-09T19:39:35.077Z,7.25
2022-10-09T19:42:02.535Z,7.25
2022-10-09T19:44:29.968Z,7.31
2022-10-09T19:46:57.497Z,7.29
2022-10-09T19:49:24.909Z,7.36
2022-10-09T19:51:53.664Z,7.39
2022-10-09T19:54:21.072Z,7.19
2022-10-09T19:56:48.533Z,7.35
2022-10-09T19:59:15.989Z,7.30
2022-10-09T20:01:43.402Z,7.33
2022-10-09T20:04:11.948Z,7.27
2022-10-09T20:06:40.785Z,7.20
2022-10-09T20:09:11.274Z,7.22
2022-10-09T20:11:39.215Z,7.22
2022-10-09T20:14:06.838Z,7.23
2022-10-09T20:16:34.558Z,7.11
2022-10-09T20:19:02.934Z,7.01
2022-10-09T20:21:32.008Z,7.00
2022-10-09T20:24:01.053Z,6.88
2022-10-09T20:26:31.347Z,6.74
2022-10-09T20:28:58.768Z,6.62
2022-10-09T20:31:27.657Z,6.54
2022-10-09T20:33:56.182Z,6.56
2022-10-09T20:36:27.149Z,6.51
2022-10-09T20:38:58.368Z,6.52
2022-10-09T20:41:27.527Z,6.53
2022-10-09T20:43:57.552Z,6.50
2022-10-09T20:46:27.858Z,6.49
2022-10-09T20:48:55.654Z,6.39
2022-10-09T20:51:23.551Z,6.39
2022-10-09T20:53:53.109Z,6.26
2022-10-09T20:56:20.534Z,6.22
2022-10-09T20:58:47.936Z,6.12
2022-10-09T21:01:17.104Z,6.02
2022-10-09T21:03:45.294Z,6.08
2022-10-09T21:06:15.158Z,6.15
2022-10-09T21:08:43.245Z,6.10
2022-10-09T21:11:16.213Z,6.11
2022-10-09T21:13:44.329Z,6.06
2022-10-09T21:16:13.560Z,6.08
2022-10-09T21:18:42.636Z,5.96
2022-10-09T21:21:11.778Z,5.96
2022-10-09T21:23:39.270Z,5.97
2022-10-09T21:26:12.631Z,5.89
2022-10-09T21:28:40.111Z,5.88
2022-10-09T21:31:12.136Z,5.80
2022-10-09T21:33:39.550Z,5.69
2022-10-09T21:36:13.816Z,5.72
2022-10-09T21:38:41.249Z,5.61
2022-10-09T21:41:08.675Z,5.80
2022-10-09T21:43:36.096Z,5.74
2022-10-09T21:46:03.524Z,5.71
2022-10-09T21:48:31.070Z,5.67
2022-10-09T21:50:58.467Z,5.75
2022-10-09T21:53:27.328Z,5.81
2022-10-09T21:55:54.748Z,5.86
2022-10-09T21:58:22.212Z,5.95
2022-10-09T22:00:56.112Z,5.92
2022-10-09T22:03:25.294Z,5.86
2022-10-09T22:05:52.924Z,5.90
2022-10-09T22:08:20.517Z,5.82
2022-10-09T22:10:49.938Z,5.74
2022-10-09T22:13:17.967Z,5.69
2022-10-09T22:15:50.780Z,5.79
2022-10-09T22:18:18.708Z,5.69
2022-10-09T22:20:47.836Z,5.68
2022-10-09T22:23:16.524Z,5.69
2022-10-09T22:25:43.976Z,5.59
2022-10-09T22:28:12.795Z,5.51
2022-10-09T22:30:40.195Z,5.45
2022-10-09T22:33:07.600Z,5.50
2022-10-09T22:35:35.065Z,5.48
2022-10-09T22:38:02.480Z,5.52
2022-10-09T22:40:29.901Z,5.50
2022-10-09T22:42:57.357Z,5.37
2022-10-09T22:45:26.099Z,5.40
2022-10-09T22:47:53.508Z,5.37
2022-10-09T22:50:20.950Z,5.27
2022-10-09T22:52:48.645Z,5.26
2022-10-09T22:55:16.285Z,5.36
2022-10-09T22:57:43.693Z,5.32
2022-10-09T23:00:12.678Z,5.41
2022-10-09T23:02:41.435Z,5.41
2022-10-09T23:05:09.504Z,5.37
2022-10-09T23:07:36.904Z,5.40
2022-10-09T23:10:04.955Z,5.28
2022-10-09T23:12:32.369Z,5.26
2022-10-09T23:14:59.796Z,5.28
2022-10-09T23:17:27.203Z,5.33
2022-10-09T23:19:55.956Z,5.37
2022-10-09T23:22:23.362Z,5.44
2022-10-09T23:24:50.791Z,5.39
2022-10-09T23:27:18.201Z,5.30
2022-10-09T23:29:45.617Z,5.31
2022-10-09T23:32:13.308Z,5.32
2022-10-09T23:34:40.752Z,5.21
2022-10-09T23:37:09.577Z,5.46
2022-10-09T23:39:37.032Z,5.55
2022-10-09T23:42:04.676Z,5.68
2022-10-09T23:44:32.079Z,5.63
2022-10-09T23:46:59.518Z,5.85
2022-10-09T23:49:26.953Z,5.81
2022-10-09T23:51:54.373Z,5.80
2022-10-09T23:54:23.140Z,5.70
2022-10-09T23:56:50.569Z,5.77
2022-10-09T23:59:17.979Z,5.85
